createdAt,value
2019-05-26T00:01:29.420Z,14.60
2019-05-26T00:03:58.644Z,14.50
2019-05-26T00:06:34.661Z,14.40
2019-05-26T00:09:04.712Z,14.40
2019-05-26T00:11:40.417Z,14.30
2019-05-26T00:14:09.643Z,14.10
2019-05-26T00:16:39.000Z,14.00
2019-05-26T00:19:14.314Z,14.00
2019-05-26T00:21:50.188Z,14.00
2019-05-26T00:24:33.218Z,14.00
2019-05-26T00:27:02.346Z,13.80
2019-05-26T00:29:37.966Z,13.60
2019-05-26T00:32:14.202Z,13.50
2019-05-26T00:34:50.464Z,13.30
2019-05-26T00:37:19.648Z,13.20
2019-05-26T00:39:55.714Z,13.10
2019-05-26T00:42:24.837Z,13.20
2019-05-26T00:45:01.106Z,13.30
2019-05-26T00:47:30.213Z,13.40
2019-05-26T00:50:05.609Z,13.40
2019-05-26T00:52:34.785Z,13.40
2019-05-26T00:55:03.991Z,13.40
2019-05-26T00:57:39.942Z,13.30
2019-05-26T01:00:09.927Z,13.30
2019-05-26T01:02:46.920Z,13.30
2019-05-26T01:05:16.045Z,13.20
2019-05-26T01:08:05.368Z,13.20
2019-05-26T01:10:22.471Z,13.20
2019-05-26T01:12:57.998Z,13.20
2019-05-26T01:15:27.105Z,13.30
2019-05-26T01:17:56.443Z,13.30
2019-05-26T01:20:31.689Z,13.30
2019-05-26T01:23:07.844Z,13.30
2019-05-26T01:25:44.114Z,13.30
2019-05-26T01:28:13.280Z,13.30
2019-05-26T01:30:49.495Z,13.30
2019-05-26T01:33:25.522Z,13.30
2019-05-26T01:36:02.617Z,13.30
2019-05-26T01:38:32.304Z,13.30
2019-05-26T01:41:01.568Z,13.30
2019-05-26T01:43:37.690Z,13.40
2019-05-26T01:46:06.816Z,13.30
2019-05-26T01:48:43.054Z,13.30
2019-05-26T01:51:12.176Z,13.30
2019-05-26T01:53:47.930Z,13.30
2019-05-26T01:56:17.060Z,13.30
2019-05-26T01:58:46.154Z,13.30
2019-05-26T02:01:21.922Z,13.30
2019-05-26T02:03:51.115Z,13.30
2019-05-26T02:06:26.778Z,13.30
2019-05-26T02:08:55.766Z,13.30
2019-05-26T02:11:31.716Z,13.30
2019-05-26T02:14:00.832Z,13.30
2019-05-26T02:16:37.272Z,13.30
2019-05-26T02:19:06.380Z,13.30
2019-05-26T02:21:41.982Z,13.30
2019-05-26T02:24:18.026Z,13.30
2019-05-26T02:26:53.486Z,13.20
2019-05-26T02:29:22.602Z,13.10
2019-05-26T02:31:51.722Z,13.10
2019-05-26T02:34:34.999Z,13.00
2019-05-26T02:37:05.390Z,13.00
2019-05-26T02:39:41.536Z,13.00
2019-05-26T02:42:11.552Z,13.00
2019-05-26T02:44:40.715Z,13.00
2019-05-26T02:47:16.969Z,13.00
2019-05-26T02:49:46.066Z,13.10
2019-05-26T02:52:21.889Z,13.10
2019-05-26T02:54:51.007Z,13.10
2019-05-26T02:57:20.156Z,13.10
2019-05-26T02:59:55.806Z,13.20
2019-05-26T03:02:24.984Z,13.20
2019-05-26T03:05:00.764Z,13.20
2019-05-26T03:07:31.319Z,13.30
2019-05-26T03:10:09.417Z,13.30
2019-05-26T03:12:41.748Z,13.20
2019-05-26T03:15:20.253Z,13.20
2019-05-26T03:17:50.439Z,13.20
2019-05-26T03:20:19.698Z,13.20
2019-05-26T03:22:56.715Z,13.10
2019-05-26T03:25:32.617Z,13.10
2019-05-26T03:28:08.446Z,13.10
2019-05-26T03:30:37.968Z,13.10
2019-05-26T03:33:14.198Z,13.00
2019-05-26T03:35:49.460Z,12.90
2019-05-26T03:38:25.007Z,12.90
2019-05-26T03:40:54.266Z,12.90
2019-05-26T03:43:30.127Z,12.90
2019-05-26T03:46:18.205Z,12.90
2019-05-26T03:48:55.281Z,12.80
2019-05-26T03:51:24.515Z,12.80
2019-05-26T03:54:00.472Z,12.80
2019-05-26T03:56:29.725Z,12.90
2019-05-26T03:59:05.142Z,12.90
2019-05-26T04:01:34.257Z,12.80
2019-05-26T04:04:03.366Z,12.80
2019-05-26T04:06:39.483Z,12.80
2019-05-26T04:09:09.013Z,12.70
2019-05-26T04:11:45.139Z,12.70
2019-05-26T04:14:14.339Z,12.70
2019-05-26T04:16:50.229Z,12.70
2019-05-26T04:19:19.357Z,12.80
2019-05-26T04:21:55.127Z,12.80
2019-05-26T04:24:31.529Z,12.80
2019-05-26T04:27:07.238Z,12.90
2019-05-26T04:29:36.423Z,13.00
2019-05-26T04:32:11.869Z,13.00
2019-05-26T04:34:47.228Z,13.00
2019-05-26T04:37:23.143Z,12.90
2019-05-26T04:39:52.416Z,13.00
2019-05-26T04:42:28.595Z,13.00
2019-05-26T04:44:57.941Z,13.00
2019-05-26T04:47:33.563Z,13.00
2019-05-26T04:50:02.778Z,13.00
2019-05-26T04:52:38.951Z,13.00
2019-05-26T04:55:08.198Z,13.00
2019-05-26T04:57:37.406Z,13.00
2019-05-26T05:00:13.516Z,13.00
2019-05-26T05:02:42.654Z,13.00
2019-05-26T05:05:19.600Z,13.10
2019-05-26T05:07:48.700Z,13.10
2019-05-26T05:10:41.034Z,13.20
2019-05-26T05:12:55.942Z,13.20
2019-05-26T05:15:31.494Z,13.40
2019-05-26T05:18:00.623Z,13.40
2019-05-26T05:20:36.563Z,13.60
2019-05-26T05:23:05.866Z,13.70
2019-05-26T05:25:42.177Z,13.60
2019-05-26T05:28:11.279Z,13.70
2019-05-26T05:30:47.078Z,13.70
2019-05-26T05:33:23.138Z,14.00
2019-05-26T05:35:59.193Z,14.20
2019-05-26T05:38:28.135Z,14.40
2019-05-26T05:41:03.964Z,14.60
2019-05-26T05:43:33.118Z,14.80
2019-05-26T05:46:09.317Z,14.80
2019-05-26T05:48:38.461Z,14.90
2019-05-26T05:51:14.046Z,15.00
2019-05-26T05:53:43.168Z,15.00
2019-05-26T05:56:12.341Z,15.00
2019-05-26T05:58:48.357Z,15.00
2019-05-26T06:01:17.553Z,15.10
2019-05-26T06:03:53.677Z,15.30
2019-05-26T06:06:22.803Z,15.30
2019-05-26T06:08:58.669Z,15.50
2019-05-26T06:11:27.797Z,15.80
2019-05-26T06:14:03.663Z,16.30
2019-05-26T06:16:32.786Z,16.40
2019-05-26T06:19:08.290Z,16.50
2019-05-26T06:21:37.475Z,16.60
2019-05-26T06:24:06.609Z,16.60
2019-05-26T06:26:42.019Z,16.70
2019-05-26T06:29:11.158Z,16.70
2019-05-26T06:31:47.696Z,16.70
2019-05-26T06:34:23.507Z,16.80
2019-05-26T06:36:59.614Z,17.10
2019-05-26T06:39:28.755Z,17.60
2019-05-26T06:42:04.293Z,17.80
2019-05-26T06:44:33.421Z,17.90
2019-05-26T06:47:09.155Z,18.20
2019-05-26T06:49:38.271Z,18.30
2019-05-26T06:52:13.938Z,18.50
2019-05-26T06:54:43.052Z,18.60
2019-05-26T07:00:20.600Z,19.00
2019-05-26T07:02:55.878Z,19.10
2019-05-26T07:05:25.000Z,19.00
2019-05-26T07:08:00.403Z,19.30
2019-05-26T07:10:29.588Z,19.40
2019-05-26T07:13:05.552Z,19.80
2019-05-26T07:15:34.756Z,19.90
2019-05-26T07:18:04.077Z,20.10
2019-05-26T07:20:39.766Z,20.30
2019-05-26T07:23:09.597Z,20.20
2019-05-26T07:25:45.934Z,20.60
2019-05-26T07:28:16.022Z,20.70
2019-05-26T07:31:10.936Z,20.40
2019-05-26T07:33:46.286Z,20.50
2019-05-26T07:36:22.326Z,20.70
2019-05-26T07:38:51.526Z,21.10
2019-05-26T07:41:20.818Z,21.40
2019-05-26T07:43:57.042Z,21.70
2019-05-26T07:46:26.271Z,22.10
2019-05-26T07:48:55.488Z,22.70
2019-05-26T07:51:30.966Z,22.70
2019-05-26T07:54:00.159Z,22.80
2019-05-26T07:56:36.264Z,23.00
2019-05-26T07:59:12.825Z,23.30
2019-05-26T08:01:56.686Z,23.40
2019-05-26T08:04:25.875Z,23.00
2019-05-26T08:07:01.944Z,23.10
2019-05-26T08:09:31.138Z,23.00
2019-05-26T08:12:06.650Z,23.00
2019-05-26T08:14:40.532Z,23.30
2019-05-26T08:17:18.250Z,23.60
2019-05-26T08:20:09.112Z,23.20
2019-05-26T08:22:44.867Z,23.40
2019-05-26T08:25:14.288Z,23.80
2019-05-26T08:27:52.974Z,23.90
2019-05-26T08:30:22.156Z,23.60
2019-05-26T08:33:05.482Z,23.50
2019-05-26T08:35:34.645Z,24.00
2019-05-26T08:38:03.869Z,24.60
2019-05-26T08:40:39.276Z,24.70
2019-05-26T08:43:08.431Z,25.30
2019-05-26T08:45:44.575Z,25.50
2019-05-26T08:48:13.735Z,25.70
2019-05-26T08:50:50.002Z,25.90
2019-05-26T08:53:19.212Z,26.10
2019-05-26T08:55:55.246Z,26.40
2019-05-26T08:58:24.375Z,26.10
2019-05-26T09:01:07.701Z,26.50
2019-05-26T09:03:36.953Z,27.00
2019-05-26T09:06:13.189Z,26.80
2019-05-26T09:08:42.262Z,26.80
2019-05-26T09:11:11.399Z,26.80
2019-05-26T09:13:47.139Z,26.60
2019-05-26T09:16:16.259Z,26.20
2019-05-26T09:18:51.701Z,26.40
2019-05-26T09:21:20.822Z,26.70
2019-05-26T09:23:56.718Z,26.80
2019-05-26T09:26:25.845Z,26.90
2019-05-26T09:29:01.529Z,26.70
2019-05-26T09:31:34.013Z,26.60
2019-05-26T09:34:14.885Z,26.40
2019-05-26T09:36:44.005Z,26.40
2019-05-26T09:39:13.137Z,26.40
2019-05-26T09:41:48.561Z,26.70
2019-05-26T09:44:17.829Z,26.90
2019-05-26T09:46:54.092Z,26.50
2019-05-26T09:49:23.291Z,26.40
2019-05-26T09:51:59.322Z,26.00
2019-05-26T09:54:28.461Z,25.70
2019-05-26T09:57:04.517Z,25.60
2019-05-26T09:59:33.733Z,25.60
2019-05-26T10:02:15.594Z,25.90
2019-05-26T10:04:44.659Z,26.10
2019-05-26T10:07:16.040Z,26.10
2019-05-26T10:09:52.240Z,26.10
2019-05-26T10:12:52.423Z,26.10
2019-05-26T10:15:28.417Z,26.30
2019-05-26T10:18:04.477Z,26.00
2019-05-26T10:20:34.101Z,25.50
2019-05-26T10:23:03.317Z,25.30
2019-05-26T10:25:39.546Z,25.10
2019-05-26T10:28:09.286Z,24.70
2019-05-26T10:30:45.501Z,24.50
2019-05-26T10:33:21.584Z,24.30
2019-05-26T10:35:57.880Z,24.20
2019-05-26T10:38:27.317Z,24.00
2019-05-26T10:41:01.079Z,23.90
2019-05-26T10:43:46.846Z,23.50
2019-05-26T10:46:08.252Z,23.30
2019-05-26T10:48:44.075Z,23.10
2019-05-26T10:51:13.239Z,23.00
2019-05-26T10:53:49.013Z,22.80
2019-05-26T10:56:18.260Z,22.80
2019-05-26T10:58:47.464Z,22.70
2019-05-26T11:01:23.074Z,22.60
2019-05-26T11:03:58.950Z,22.60
2019-05-26T11:06:34.419Z,22.70
2019-05-26T11:09:05.058Z,22.70
2019-05-26T11:11:34.181Z,22.70
2019-05-26T11:16:58.453Z,22.80
2019-05-26T11:19:34.588Z,22.80
2019-05-26T11:22:03.895Z,22.80
2019-05-26T11:24:35.550Z,22.70
2019-05-26T11:27:13.140Z,22.70
2019-05-26T11:29:42.064Z,22.70
2019-05-26T11:32:17.746Z,22.70
2019-05-26T11:35:01.453Z,22.60
2019-05-26T11:37:34.397Z,22.60
2019-05-26T11:40:03.575Z,22.40
2019-05-26T11:42:32.719Z,22.30
2019-05-26T11:45:08.960Z,22.30
2019-05-26T11:47:38.123Z,22.20
2019-05-26T11:50:14.190Z,22.20
2019-05-26T11:52:43.370Z,22.30
2019-05-26T11:55:19.597Z,22.40
2019-05-26T11:57:48.760Z,22.50
2019-05-26T12:00:24.937Z,22.60
2019-05-26T12:03:01.141Z,22.70
2019-05-26T12:05:36.674Z,22.70
2019-05-26T12:08:05.895Z,22.80
2019-05-26T12:10:42.177Z,23.00
2019-05-26T12:13:11.289Z,23.00
2019-05-26T12:15:47.491Z,23.10
2019-05-26T12:18:17.641Z,23.20
2019-05-26T12:20:53.266Z,23.20
2019-05-26T12:23:22.367Z,23.30
2019-05-26T12:25:58.874Z,23.40
2019-05-26T12:28:28.191Z,23.40
2019-05-26T12:31:04.275Z,23.60
2019-05-26T12:33:33.393Z,23.60
2019-05-26T12:36:15.540Z,23.60
2019-05-26T12:38:53.958Z,23.60
2019-05-26T12:41:33.156Z,23.60
2019-05-26T12:44:00.804Z,23.60
2019-05-26T12:46:30.061Z,23.50
2019-05-26T12:49:05.594Z,23.60
2019-05-26T12:51:34.859Z,23.50
2019-05-26T12:54:11.038Z,23.60
2019-05-26T12:56:40.185Z,23.50
2019-05-26T12:59:09.456Z,23.70
2019-05-26T13:01:45.015Z,23.50
2019-05-26T13:04:22.315Z,23.60
2019-05-26T13:06:57.766Z,23.60
2019-05-26T13:09:26.926Z,23.60
2019-05-26T13:11:56.067Z,23.70
2019-05-26T13:14:32.032Z,23.60
2019-05-26T13:17:01.804Z,23.60
2019-05-26T13:19:31.142Z,23.60
2019-05-26T13:22:07.694Z,23.60
2019-05-26T13:24:36.988Z,23.50
2019-05-26T13:27:13.166Z,23.50
2019-05-26T13:29:42.271Z,23.50
2019-05-26T13:32:17.709Z,23.50
2019-05-26T13:34:53.122Z,23.60
2019-05-26T13:37:29.374Z,23.60
2019-05-26T13:39:58.711Z,23.60
2019-05-26T13:42:28.016Z,23.50
2019-05-26T13:45:03.214Z,23.40
2019-05-26T13:47:32.338Z,23.30
2019-05-26T13:50:07.699Z,23.40
2019-05-26T13:52:36.880Z,23.50
2019-05-26T13:55:13.272Z,23.60
2019-05-26T13:57:42.616Z,23.60
2019-05-26T14:00:13.136Z,23.60
2019-05-26T14:02:48.734Z,23.60
2019-05-26T14:05:25.510Z,23.60
2019-05-26T14:08:01.311Z,23.60
2019-05-26T14:10:35.584Z,23.60
2019-05-26T14:13:13.119Z,23.60
2019-05-26T14:15:42.458Z,23.70
2019-05-26T14:18:18.552Z,23.70
2019-05-26T14:20:47.760Z,23.80
2019-05-26T14:23:16.899Z,23.80
2019-05-26T14:25:53.232Z,23.80
2019-05-26T14:28:22.384Z,23.80
2019-05-26T14:30:57.928Z,23.70
2019-05-26T14:33:27.160Z,23.50
2019-05-26T14:36:10.154Z,23.20
2019-05-26T14:38:43.081Z,23.00
2019-05-26T14:41:16.570Z,22.80
2019-05-26T14:43:45.751Z,22.70
2019-05-26T14:46:21.978Z,22.50
2019-05-26T14:48:51.179Z,22.40
2019-05-26T14:51:27.016Z,22.30
2019-05-26T14:53:56.012Z,22.10
2019-05-26T14:56:33.196Z,22.00
2019-05-26T14:59:02.400Z,22.00
2019-05-26T15:01:38.457Z,21.90
2019-05-26T15:04:14.474Z,21.90
2019-05-26T15:06:50.280Z,21.80
2019-05-26T15:09:25.201Z,21.80
2019-05-26T15:11:57.757Z,21.70
2019-05-26T15:14:27.083Z,21.70
2019-05-26T15:17:02.773Z,21.60
2019-05-26T15:19:32.057Z,21.60
2019-05-26T15:22:01.211Z,21.50
2019-05-26T15:24:38.139Z,21.50
2019-05-26T15:27:08.752Z,21.50
2019-05-26T15:29:44.304Z,21.50
2019-05-26T15:32:13.517Z,21.50
2019-05-26T15:34:49.169Z,21.40
2019-05-26T15:37:25.409Z,21.50
2019-05-26T15:40:02.038Z,21.40
2019-05-26T15:42:31.224Z,21.40
2019-05-26T15:45:00.544Z,21.40
2019-05-26T15:47:36.137Z,21.50
2019-05-26T15:50:06.073Z,21.50
2019-05-26T15:52:41.440Z,21.50
2019-05-26T15:55:10.700Z,21.50
2019-05-26T15:57:39.869Z,21.40
2019-05-26T16:00:16.268Z,21.40
2019-05-26T16:02:45.492Z,21.40
2019-05-26T16:05:29.186Z,21.40
2019-05-26T16:08:05.205Z,21.40
2019-05-26T16:10:41.099Z,21.40
2019-05-26T16:13:10.342Z,21.40
2019-05-26T16:15:46.672Z,21.40
2019-05-26T16:18:16.158Z,21.40
2019-05-26T16:20:45.400Z,21.50
2019-05-26T16:23:21.373Z,21.50
2019-05-26T16:25:50.475Z,21.50
2019-05-26T16:28:26.639Z,21.70
2019-05-26T16:31:02.462Z,21.90
2019-05-26T16:33:38.649Z,22.20
2019-05-26T16:36:07.929Z,22.40
2019-05-26T16:38:37.143Z,22.60
2019-05-26T16:41:13.294Z,22.70
2019-05-26T16:43:42.479Z,22.70
2019-05-26T16:46:18.355Z,22.80
2019-05-26T16:48:49.092Z,22.80
2019-05-26T16:51:24.655Z,22.80
2019-05-26T16:53:53.841Z,22.90
2019-05-26T16:56:23.028Z,22.80
2019-05-26T16:58:58.645Z,22.70
2019-05-26T17:01:34.507Z,22.60
2019-05-26T17:04:03.851Z,22.40
2019-05-26T17:06:47.899Z,22.30
2019-05-26T17:09:17.287Z,22.10
2019-05-26T17:11:46.642Z,22.00
2019-05-26T17:14:22.042Z,21.90
2019-05-26T17:16:51.318Z,21.80
2019-05-26T17:19:27.502Z,21.70
2019-05-26T17:21:56.590Z,21.70
2019-05-26T17:24:25.860Z,21.60
2019-05-26T17:27:02.079Z,21.50
2019-05-26T17:29:31.302Z,21.40
2019-05-26T17:32:13.944Z,21.30
2019-05-26T17:34:43.816Z,21.30
2019-05-26T17:37:19.491Z,21.30
2019-05-26T17:39:48.654Z,21.30
2019-05-26T17:42:24.741Z,21.20
2019-05-26T17:44:54.003Z,21.10
2019-05-26T17:47:49.652Z,21.10
2019-05-26T17:50:38.442Z,21.00
2019-05-26T17:53:13.979Z,21.00
2019-05-26T17:55:43.734Z,20.90
2019-05-26T17:58:19.754Z,20.90
2019-05-26T18:00:49.191Z,20.80
2019-05-26T18:03:24.737Z,20.80
2019-05-26T18:06:00.887Z,20.80
2019-05-26T18:08:37.266Z,20.80
2019-05-26T18:11:06.600Z,20.90
2019-05-26T18:13:35.735Z,20.90
2019-05-26T18:16:11.780Z,20.90
2019-05-26T18:18:41.044Z,20.90
2019-05-26T18:21:17.323Z,20.90
2019-05-26T18:23:46.658Z,21.00
2019-05-26T18:26:22.526Z,21.00
2019-05-26T18:28:51.793Z,21.00
2019-05-26T18:31:29.062Z,21.00
2019-05-26T18:34:04.626Z,21.10
2019-05-26T18:36:39.960Z,21.10
2019-05-26T18:39:09.370Z,21.10
2019-05-26T18:41:44.842Z,21.10
2019-05-26T18:44:14.068Z,21.20
2019-05-26T18:46:44.610Z,21.10
2019-05-26T18:49:20.264Z,21.10
2019-05-26T18:51:49.464Z,21.10
2019-05-26T18:54:18.674Z,21.10
2019-05-26T18:56:55.170Z,21.10
2019-05-26T18:59:24.430Z,21.00
2019-05-26T19:01:54.180Z,20.90
2019-05-26T19:04:30.069Z,20.90
2019-05-26T19:07:06.917Z,20.90
2019-05-26T19:09:43.404Z,20.90
2019-05-26T19:12:13.426Z,20.90
2019-05-26T19:14:49.535Z,20.90
2019-05-26T19:17:18.858Z,20.80
2019-05-26T19:19:54.474Z,20.70
2019-05-26T19:22:24.170Z,20.70
2019-05-26T19:25:00.754Z,20.70
2019-05-26T19:27:30.490Z,20.60
2019-05-26T19:30:14.349Z,20.60
2019-05-26T19:32:43.624Z,20.50
2019-05-26T19:35:22.944Z,20.50
2019-05-26T19:37:52.226Z,20.40
2019-05-26T19:40:28.152Z,20.30
2019-05-26T19:42:57.756Z,20.30
2019-05-26T19:45:39.418Z,20.40
2019-05-26T19:48:08.806Z,20.40
2019-05-26T19:50:38.079Z,20.40
2019-05-26T19:53:14.669Z,20.40
2019-05-26T19:55:43.996Z,20.40
2019-05-26T19:58:19.618Z,20.40
2019-05-26T20:00:48.978Z,20.30
2019-05-26T20:03:24.520Z,20.30
2019-05-26T20:06:19.611Z,20.30
2019-05-26T20:09:02.180Z,20.30
2019-05-26T20:11:32.526Z,20.30
2019-05-26T20:14:14.478Z,20.30
2019-05-26T20:16:43.880Z,20.30
2019-05-26T20:19:19.920Z,20.20
2019-05-26T20:21:52.134Z,20.10
2019-05-26T20:24:28.413Z,20.10
2019-05-26T20:26:59.812Z,20.00
2019-05-26T20:29:44.994Z,20.00
2019-05-26T20:32:14.128Z,19.90
2019-05-26T20:34:49.674Z,19.90
2019-05-26T20:37:19.432Z,19.90
2019-05-26T20:39:55.658Z,19.90
2019-05-26T20:42:47.686Z,19.80
2019-05-26T20:48:29.095Z,19.70
2019-05-26T20:51:13.025Z,19.50
2019-05-26T20:53:42.319Z,19.50
2019-05-26T20:56:18.712Z,19.50
2019-05-26T20:58:48.290Z,19.50
2019-05-26T21:01:24.182Z,19.40
2019-05-26T21:03:53.475Z,19.40
2019-05-26T21:06:29.120Z,19.40
2019-05-26T21:08:59.457Z,19.30
2019-05-26T21:11:28.709Z,19.30
2019-05-26T21:14:05.069Z,19.30
2019-05-26T21:16:34.337Z,19.30
2019-05-26T21:19:10.460Z,19.30
2019-05-26T21:21:39.794Z,19.30
2019-05-26T21:24:17.070Z,19.20
2019-05-26T21:26:46.361Z,19.20
2019-05-26T21:29:22.147Z,19.10
2019-05-26T21:31:57.537Z,19.10
2019-05-26T21:34:33.254Z,19.10
2019-05-26T21:37:02.575Z,19.10
2019-05-26T21:39:31.910Z,19.00
2019-05-26T21:42:07.562Z,18.90
2019-05-26T21:44:36.857Z,18.90
2019-05-26T21:47:13.077Z,18.90
2019-05-26T21:49:48.842Z,18.80
2019-05-26T21:52:27.070Z,18.80
2019-05-26T21:54:58.157Z,18.70
2019-05-26T21:57:33.394Z,18.70
2019-05-26T22:00:03.040Z,18.60
2019-05-26T22:02:39.024Z,18.60
2019-05-26T22:05:10.568Z,18.50
2019-05-26T22:07:46.971Z,18.40
2019-05-26T22:10:16.306Z,18.40
2019-05-26T22:12:45.575Z,18.40
2019-05-26T22:15:22.283Z,18.30
2019-05-26T22:17:51.447Z,18.10
2019-05-26T22:20:26.812Z,18.10
2019-05-26T22:22:55.977Z,18.10
2019-05-26T22:25:32.709Z,18.00
2019-05-26T22:28:08.670Z,18.00
2019-05-26T22:30:45.010Z,17.90
2019-05-26T22:33:14.279Z,17.90
2019-05-26T22:35:54.953Z,17.80
2019-05-26T22:38:24.205Z,17.80
2019-05-26T22:40:59.968Z,17.70
2019-05-26T22:43:30.749Z,17.60
2019-05-26T22:45:59.979Z,17.60
2019-05-26T22:48:35.652Z,17.50
2019-05-26T22:51:14.510Z,17.50
2019-05-26T22:53:50.281Z,17.50
2019-05-26T22:56:19.433Z,17.50
2019-05-26T22:58:55.199Z,17.50
2019-05-26T23:01:24.476Z,17.40
2019-05-26T23:04:03.091Z,17.40
2019-05-26T23:06:30.833Z,17.40
2019-05-26T23:09:06.498Z,17.50
2019-05-26T23:11:35.797Z,17.40
2019-05-26T23:14:13.318Z,17.40
2019-05-26T23:16:42.555Z,17.40
2019-05-26T23:19:19.484Z,17.40
2019-05-26T23:21:50.740Z,17.40
2019-05-26T23:24:20.033Z,17.30
2019-05-26T23:27:02.229Z,17.40
2019-05-26T23:29:31.412Z,17.40
2019-05-26T23:32:00.622Z,17.40
2019-05-26T23:34:36.620Z,17.50
2019-05-26T23:37:05.862Z,17.50
2019-05-26T23:39:41.108Z,17.50
2019-05-26T23:42:10.369Z,17.50
2019-05-26T23:44:46.447Z,17.50
2019-05-26T23:47:15.989Z,17.60
2019-05-26T23:49:58.973Z,17.60
2019-05-26T23:52:34.367Z,17.60
2019-05-26T23:55:10.523Z,17.70
2019-05-26T23:57:39.799Z,17.70
